Time;durP1;ratioP1;P1;durP2;ratioP2;P2;SDS_P1;SDS_P2;PMS_P1;PMS_P2;Temp;Humidity;BMP_temperature;BMP_pressure;BME280_temperature;BME280_humidity;BME280_pressure;Samples;Min_cycle;Max_cycle;Signal;HPM_P1;HPM_P2
2023/06/11 00:01:40;;;;;;;3.33;1.62;;;;;;;11.51;61.85;100498.55;1741934;82;21592;-73
2023/06/11 00:04:06;;;;;;;7.47;1.40;;;;;;;11.49;61.83;100496.48;1739889;81;21591;-65
2023/06/11 00:06:33;;;;;;;3.20;1.30;;;;;;;11.50;61.82;100502.94;1745291;81;21553;-67
2023/06/11 00:09:00;;;;;;;2.85;1.20;;;;;;;11.51;61.86;100506.41;1743972;81;21089;-72
2023/06/11 00:11:26;;;;;;;2.35;1.05;;;;;;;11.56;61.92;100501.85;1743865;82;21014;-71
2023/06/11 00:13:53;;;;;;;8.20;1.70;;;;;;;11.59;61.75;100501.73;1740576;81;20975;-65
2023/06/11 00:16:20;;;;;;;4.22;2.00;;;;;;;11.59;61.70;100503.03;1741382;81;21018;-70
2023/06/11 00:18:47;;;;;;;3.83;1.67;;;;;;;11.58;61.64;100504.80;1736802;81;21065;-71
2023/06/11 00:21:14;;;;;;;6.78;1.47;;;;;;;11.58;61.62;100500.03;1745264;81;21026;-70
2023/06/11 00:23:40;;;;;;;7.12;1.40;;;;;;;11.59;61.60;100499.11;1743361;81;21014;-71
2023/06/11 00:26:07;;;;;;;6.62;1.22;;;;;;;11.62;61.57;100501.61;1743479;81;21108;-71
2023/06/11 00:28:34;;;;;;;3.25;1.32;;;;;;;11.62;61.57;100498.98;1672523;84;21025;-70
2023/06/11 00:31:01;;;;;;;5.33;1.55;;;;;;;11.63;61.53;100500.72;1736766;81;21532;-72
2023/06/11 00:33:28;;;;;;;2.15;1.07;;;;;;;11.63;61.47;100499.41;1740283;81;21037;-65
2023/06/11 00:35:54;;;;;;;7.22;1.10;;;;;;;11.61;61.35;100498.61;1744596;81;21075;-71
2023/06/11 00:38:20;;;;;;;4.58;1.30;;;;;;;11.55;61.31;100489.70;1745108;82;20971;-71
2023/06/11 00:40:48;;;;;;;4.10;0.80;;;;;;;11.49;61.25;100492.56;1743049;81;21006;-71
2023/06/11 00:43:21;;;;;;;4.30;1.65;;;;;;;11.42;61.33;100491.92;1743908;81;20994;-70
2023/06/11 00:45:50;;;;;;;5.58;1.10;;;;;;;11.38;61.35;100493.81;1742825;81;21029;-71
2023/06/11 00:48:15;;;;;;;4.83;1.45;;;;;;;11.33;61.32;100499.66;1739278;82;21100;-71
2023/06/11 00:50:48;;;;;;;2.45;1.05;;;;;;;11.29;61.38;100494.17;1742579;81;21001;-70
2023/06/11 00:53:17;;;;;;;4.83;1.62;;;;;;;11.27;61.34;100495.98;1741743;82;21534;-71
2023/06/11 00:55:45;;;;;;;2.92;1.60;;;;;;;11.23;61.32;100493.10;1742224;81;21025;-71
2023/06/11 00:58:15;;;;;;;;;;;;;;;11.18;61.42;100491.95;1745294;82;21014;-72
2023/06/11 01:00:45;;;;;;;2.33;1.42;;;;;;;11.18;61.53;100491.11;1738390;82;20443;-72
2023/06/11 01:03:17;;;;;;;4.10;1.62;;;;;;;11.14;61.45;100496.03;1745966;81;21037;-71
2023/06/11 01:05:44;;;;;;;6.95;1.42;;;;;;;11.10;61.45;100493.16;1735227;82;21118;-67
2023/06/11 01:08:16;;;;;;;7.40;1.60;;;;;;;11.02;61.52;100489.97;1747277;81;21540;-72
2023/06/11 01:10:42;;;;;;;4.80;1.47;;;;;;;11.00;61.57;100486.55;1743247;82;21017;-68
2023/06/11 01:13:08;;;;;;;5.85;1.45;;;;;;;10.98;61.65;100487.93;1745513;81;20974;-72
2023/06/11 01:15:34;;;;;;;4.95;1.30;;;;;;;10.95;61.61;100484.97;1745249;80;21109;-72
2023/06/11 01:18:07;;;;;;;2.20;1.30;;;;;;;10.92;61.63;100485.09;1742324;81;21029;-70
2023/06/11 01:20:45;;;;;;;5.25;1.70;;;;;;;10.86;61.60;100482.67;1739859;81;21009;-72
2023/06/11 01:23:20;;;;;;;7.62;1.60;;;;;;;10.80;61.76;100478.14;1745452;81;21564;-65
2023/06/11 01:25:56;;;;;;;3.25;1.50;;;;;;;10.79;61.81;100481.20;1748133;81;21001;-67
2023/06/11 01:28:26;;;;;;;6.20;1.67;;;;;;;10.75;61.93;100474.37;1680364;84;21041;-70
2023/06/11 01:30:56;;;;;;;4.60;2.02;;;;;;;10.74;62.02;100472.67;1671624;85;21030;-66
2023/06/11 01:33:24;;;;;;;5.03;1.37;;;;;;;10.73;62.04;100474.45;1702365;82;21035;-68
2023/06/11 01:35:52;;;;;;;4.53;1.50;;;;;;;10.73;61.93;100470.98;1702924;83;21564;-69
2023/06/11 01:38:21;;;;;;;4.28;1.35;;;;;;;10.74;62.14;100472.67;1701922;83;20998;-71
2023/06/11 01:40:47;;;;;;;2.35;1.40;;;;;;;10.77;62.13;100472.56;1675126;84;21467;-67
2023/06/11 01:43:14;;;;;;;4.67;1.62;;;;;;;10.78;62.03;100476.88;1700886;83;21096;-68
2023/06/11 01:45:40;;;;;;;2.22;1.40;;;;;;;10.76;62.20;100474.79;1703290;82;21089;-72
2023/06/11 01:48:06;;;;;;;3.67;1.57;;;;;;;10.78;62.05;100483.86;1697952;83;20983;-72
2023/06/11 01:50:33;;;;;;;3.70;1.50;;;;;;;10.82;62.20;100486.31;1701692;83;21028;-72
2023/06/11 01:53:00;;;;;;;9.30;1.75;;;;;;;10.82;62.26;100485.02;1701110;83;21541;-72
2023/06/11 01:55:26;;;;;;;4.28;1.75;;;;;;;10.84;62.26;100485.81;1702550;83;21069;-71
2023/06/11 01:57:53;;;;;;;3.72;1.90;;;;;;;10.85;62.24;100486.20;1700943;83;21119;-71
2023/06/11 02:00:20;;;;;;;4.25;2.55;;;;;;;10.89;62.34;100487.78;1698269;83;21009;-67
2023/06/11 02:02:48;;;;;;;3.67;1.87;;;;;;;10.89;62.27;100487.78;1696940;83;21022;-69
2023/06/11 02:05:15;;;;;;;4.90;1.70;;;;;;;10.91;62.34;100483.36;1703024;83;21001;-67
2023/06/11 02:07:42;;;;;;;8.60;2.05;;;;;;;10.93;62.22;100483.32;1703553;82;21054;-71
2023/06/11 02:10:09;;;;;;;4.50;1.93;;;;;;;10.85;62.61;100492.73;1728340;82;21043;-68
2023/06/11 02:12:35;;;;;;;4.72;1.82;;;;;;;10.85;62.61;100492.73;1727067;82;21358;-71
2023/06/11 02:15:02;;;;;;;8.07;2.10;;;;;;;10.89;62.30;100490.39;1730177;82;21782;-71
2023/06/11 02:17:30;;;;;;;6.20;1.90;;;;;;;10.86;62.30;100487.90;1676880;84;21553;-69
2023/06/11 02:19:56;;;;;;;7.37;2.22;;;;;;;10.85;62.24;100482.28;1730324;82;21038;-69
2023/06/11 02:22:22;;;;;;;4.87;1.72;;;;;;;10.85;62.34;100488.81;1724709;82;21475;-73
2023/06/11 02:24:48;;;;;;;3.22;1.92;;;;;;;10.86;62.35;100487.90;1727071;82;20987;-74
2023/06/11 02:27:15;;;;;;;6.58;1.98;;;;;;;10.87;62.31;100487.02;1731073;82;21043;-72
2023/06/11 02:29:41;;;;;;;12.03;1.85;;;;;;;10.91;62.37;100492.97;1729959;82;21010;-70
2023/06/11 02:32:08;;;;;;;3.95;1.80;;;;;;;10.93;62.41;100501.61;1690175;84;20982;-74
2023/06/11 02:34:34;;;;;;;10.63;2.00;;;;;;;10.93;62.36;100494.62;1735080;82;21522;-72
2023/06/11 02:37:00;;;;;;;5.35;2.00;;;;;;;10.93;62.33;100502.45;1730903;82;21006;-72
2023/06/11 02:39:27;;;;;;;4.42;1.60;;;;;;;10.95;62.42;100508.48;1729640;82;21442;-73
2023/06/11 02:41:53;;;;;;;3.55;2.15;;;;;;;10.93;62.37;100506.84;1734691;82;20959;-73
2023/06/11 02:44:21;;;;;;;2.25;1.47;;;;;;;10.93;62.32;100506.84;1734482;82;20983;-73
2023/06/11 02:46:47;;;;;;;4.33;1.72;;;;;;;10.93;62.40;100507.69;1729771;82;20995;-71
2023/06/11 02:49:14;;;;;;;2.98;1.40;;;;;;;10.94;62.45;100509.38;1736611;82;21062;-73
2023/06/11 02:51:40;;;;;;;3.72;1.40;;;;;;;10.99;62.46;100511.84;1731129;82;21030;-73
2023/06/11 02:54:10;;;;;;;6.37;1.50;;;;;;;11.03;62.41;100515.18;1735255;82;21007;-72
2023/06/11 02:56:34;;;;;;;4.67;1.62;;;;;;;11.07;62.46;100522.02;1729958;82;21059;-71
2023/06/11 02:59:01;;;;;;;4.92;1.90;;;;;;;11.08;62.36;100514.56;1734385;82;21037;-72
2023/06/11 03:01:27;;;;;;;4.47;1.77;;;;;;;11.08;62.42;100518.48;1727053;82;21049;-70
2023/06/11 03:03:54;;;;;;;4.12;1.52;;;;;;;11.12;62.37;100525.32;1696507;83;20983;-69
2023/06/11 03:06:20;;;;;;;4.17;1.50;;;;;;;11.14;62.43;100519.56;1693373;83;21068;-70
2023/06/11 03:08:46;;;;;;;2.83;1.60;;;;;;;11.15;62.45;100526.52;1697125;84;21524;-73
2023/06/11 03:11:15;;;;;;;6.35;1.72;;;;;;;11.17;62.43;100522.05;1696250;84;20994;-73
2023/06/11 03:13:41;;;;;;;4.10;1.57;;;;;;;11.20;62.47;100524.55;1696078;83;21117;-73
2023/06/11 03:16:07;;;;;;;7.75;1.85;;;;;;;11.25;62.44;100531.78;1689836;83;20988;-72
2023/06/11 03:18:33;;;;;;;6.50;1.25;;;;;;;11.29;62.50;100530.77;1695904;84;21003;-73
2023/06/11 03:21:00;;;;;;;5.00;1.55;;;;;;;11.34;62.54;100530.58;1695375;83;21021;-71
2023/06/11 03:23:26;;;;;;;3.70;1.70;;;;;;;11.38;62.51;100523.88;1695780;84;21065;-72
2023/06/11 03:25:52;;;;;;;3.72;1.70;;;;;;;11.46;62.52;100524.06;1692948;83;21025;-68
2023/06/11 03:28:18;;;;;;;2.20;1.45;;;;;;;11.53;62.55;100534.20;1695150;84;21040;-73
2023/06/11 03:30:45;;;;;;;10.23;2.87;;;;;;;11.60;62.56;100535.69;1693922;83;20990;-70
2023/06/11 03:33:11;;;;;;;16.55;2.42;;;;;;;11.67;62.61;100532.36;1697726;83;21478;-73
2023/06/11 03:35:38;;;;;;;9.40;1.67;;;;;;;11.74;62.54;100529.92;1691803;84;21056;-71
2023/06/11 03:38:04;;;;;;;5.05;1.52;;;;;;;11.80;62.58;100534.91;1693592;84;20951;-72
2023/06/11 03:40:31;;;;;;;3.77;1.60;;;;;;;11.94;62.49;100536.17;1691055;83;21006;-73
2023/06/11 03:43:00;;;;;;;2.77;1.70;;;;;;;11.94;62.49;100536.17;1695101;84;21045;-72
2023/06/11 03:45:26;;;;;;;3.37;1.65;;;;;;;12.01;62.52;100537.61;1688520;84;20950;-72
2023/06/11 03:47:55;;;;;;;10.78;1.70;;;;;;;12.08;62.51;100537.77;1692695;83;20962;-66
2023/06/11 03:50:20;;;;;;;4.47;1.70;;;;;;;12.16;62.55;100544.86;1693598;84;21043;-72
2023/06/11 03:52:47;;;;;;;2.98;1.57;;;;;;;12.18;62.47;100525.98;1694370;83;21082;-66
2023/06/11 03:55:14;;;;;;;2.62;1.55;;;;;;;12.31;62.45;100548.61;1691307;84;20935;-69
2023/06/11 03:57:41;;;;;;;;;;;;;;;12.40;62.43;100547.38;1697406;83;20947;-69
2023/06/11 04:00:12;;;;;;;3.27;1.50;;;;;;;12.49;62.39;100544.36;1696332;83;20111;-72
2023/06/11 04:02:40;;;;;;;5.97;1.60;;;;;;;12.58;62.35;100523.03;1693759;83;21034;-72
2023/06/11 04:05:09;;;;;;;2.77;1.65;;;;;;;12.58;62.35;100523.03;1695516;84;21047;-72
2023/06/11 04:07:40;;;;;;;3.80;1.62;;;;;;;12.79;62.25;100540.05;1694196;83;21093;-69
2023/06/11 04:10:04;;;;;;;4.08;1.50;;;;;;;12.95;62.36;100539.77;1693429;83;20990;-71
2023/06/11 04:12:31;;;;;;;7.12;1.87;;;;;;;12.95;62.36;100539.77;1690992;83;21113;-71
2023/06/11 04:14:57;;;;;;;20.97;1.60;;;;;;;13.05;62.13;100542.39;1713054;83;20971;-69
2023/06/11 04:17:24;;;;;;;12.03;1.35;;;;;;;13.14;62.10;100543.28;1730709;82;21015;-71
2023/06/11 04:19:50;;;;;;;5.72;1.40;;;;;;;13.21;62.00;100542.07;1729408;82;21082;-69
2023/06/11 04:22:17;;;;;;;2.37;1.50;;;;;;;13.30;61.89;100549.17;1731753;82;20967;-71
2023/06/11 04:24:43;;;;;;;6.97;1.62;;;;;;;13.37;61.81;100538.80;1684566;84;21462;-70
2023/06/11 04:27:11;;;;;;;3.27;1.40;;;;;;;13.46;61.76;100548.86;1727823;82;21010;-72
2023/06/11 04:29:37;;;;;;;4.22;1.40;;;;;;;13.55;61.71;100543.65;1732247;82;20946;-71
2023/06/11 04:32:07;;;;;;;3.95;1.52;;;;;;;13.62;61.56;100540.67;1734914;82;21046;-71
2023/06/11 04:34:33;;;;;;;4.28;1.50;;;;;;;13.69;61.47;100537.75;1681647;84;21097;-72
2023/06/11 04:37:06;;;;;;;6.22;1.72;;;;;;;13.75;61.45;100536.14;1713651;83;22235;-68
2023/06/11 04:39:31;;;;;;;3.90;1.40;;;;;;;13.81;61.14;100546.38;1732935;82;20979;-74
2023/06/11 04:41:58;;;;;;;3.20;1.25;;;;;;;13.88;61.24;100541.21;1731494;82;20936;-71
2023/06/11 04:44:26;;;;;;;2.22;1.20;;;;;;;13.95;61.29;100553.13;1735273;82;22211;-71
2023/06/11 04:46:57;;;;;;;3.05;1.20;;;;;;;14.05;61.14;100553.05;1731810;82;20963;-71
2023/06/11 04:49:21;;;;;;;4.42;1.70;;;;;;;14.18;60.87;100553.33;1731620;82;21038;-72
2023/06/11 04:51:52;;;;;;;;;;;;;;;14.26;60.61;100564.78;1733454;82;21097;-69
2023/06/11 04:54:17;;;;;;;9.00;1.75;;;;;;;14.31;60.19;100555.74;1734759;82;20099;-70
2023/06/11 04:56:44;;;;;;;5.62;1.40;;;;;;;14.41;60.37;100558.75;1735461;82;21434;-71
2023/06/11 04:59:13;;;;;;;4.80;1.30;;;;;;;14.51;59.76;100561.31;1734928;82;21010;-65
2023/06/11 05:01:46;;;;;;;5.12;1.60;;;;;;;14.55;59.84;100560.25;1731072;82;20944;-71
2023/06/11 05:04:08;;;;;;;3.40;1.37;;;;;;;14.63;59.52;100562.50;1732226;82;21027;-67
2023/06/11 05:06:34;;;;;;;4.58;1.30;;;;;;;14.68;58.81;100557.02;1730512;82;21498;-69
2023/06/11 05:09:03;;;;;;;4.25;1.47;;;;;;;14.74;58.86;100563.27;1734220;81;20943;-68
2023/06/11 05:11:30;;;;;;;3.60;1.90;;;;;;;14.83;58.69;100566.73;1722326;82;20983;-68
2023/06/11 05:13:56;;;;;;;5.30;1.87;;;;;;;14.90;57.99;100570.77;1733570;82;20975;-71
2023/06/11 05:16:26;;;;;;;2.67;1.57;;;;;;;14.94;57.03;100574.92;1728027;82;21003;-69
2023/06/11 05:18:51;;;;;;;2.30;1.65;;;;;;;14.93;57.54;100570.60;1734527;82;21014;-68
2023/06/11 05:21:18;;;;;;;2.83;1.77;;;;;;;15.02;56.98;100572.37;1729803;82;21065;-66
2023/06/11 05:23:44;;;;;;;3.37;1.90;;;;;;;15.04;57.07;100570.05;1732769;82;22303;-72
2023/06/11 05:26:13;;;;;;;3.72;1.50;;;;;;;15.15;57.01;100565.52;1732555;82;21022;-69
2023/06/11 05:28:40;;;;;;;1.80;1.40;;;;;;;15.25;57.32;100567.20;1728731;82;21014;-69
2023/06/11 05:31:09;;;;;;;3.53;1.83;;;;;;;15.35;56.84;100579.80;1730855;82;21013;-68
2023/06/11 05:33:36;;;;;;;2.95;1.45;;;;;;;15.38;56.44;100574.36;1730334;82;21006;-67
2023/06/11 05:36:02;;;;;;;;;;;;;;;15.41;56.24;100584.72;1736541;82;21454;-69
2023/06/11 05:38:28;;;;;;;6.25;1.75;;;;;;;15.42;55.81;100575.89;1726860;82;20169;-70
2023/06/11 05:40:57;;;;;;;3.58;1.65;;;;;;;15.50;56.35;100582.53;1714404;82;21134;-70
2023/06/11 05:43:24;;;;;;;5.65;1.47;;;;;;;15.55;55.78;100583.14;1726440;82;20999;-68
2023/06/11 05:45:51;;;;;;;102.62;7.40;;;;;;;15.59;55.17;100582.02;1728655;82;21015;-68
2023/06/11 05:48:17;;;;;;;6.10;2.00;;;;;;;15.59;55.65;100579.39;1663223;82;21612;-68
2023/06/11 05:50:47;;;;;;;5.50;1.80;;;;;;;15.65;55.51;100576.42;1727973;82;21002;-71
2023/06/11 05:53:14;;;;;;;2.45;1.57;;;;;;;15.75;54.74;100575.02;1729389;82;21022;-69
2023/06/11 05:55:41;;;;;;;4.22;1.35;;;;;;;15.86;54.89;100577.91;1728691;82;20979;-69
2023/06/11 05:58:08;;;;;;;4.03;1.70;;;;;;;15.97;54.52;100582.59;1731940;82;21477;-69
2023/06/11 06:00:35;;;;;;;;;;;;;;;16.01;54.18;100575.35;1732462;82;21114;-66
2023/06/11 06:03:05;;;;;;;2.33;1.42;;;;;;;16.02;53.59;100579.67;1725617;82;20520;-71
2023/06/11 06:05:34;;;;;;;3.90;1.20;;;;;;;16.09;53.57;100579.25;1709620;82;21051;-70
2023/06/11 06:08:00;;;;;;;9.03;2.03;;;;;;;16.21;53.82;100580.33;1735086;81;21030;-70
2023/06/11 06:10:29;;;;;;;2.20;1.72;;;;;;;16.32;53.86;100576.61;1736837;82;21061;-67
2023/06/11 06:12:56;;;;;;;3.95;1.47;;;;;;;16.45;53.75;100579.87;1746012;81;21010;-72
2023/06/11 06:15:22;;;;;;;5.05;1.82;;;;;;;16.48;53.47;100579.70;1740960;82;20994;-70
2023/06/11 06:17:51;;;;;;;3.20;1.50;;;;;;;16.53;53.33;100588.19;1744768;81;21085;-68
2023/06/11 06:20:17;;;;;;;4.22;1.50;;;;;;;16.60;52.93;100578.97;1740673;81;21050;-72
2023/06/11 06:22:44;;;;;;;3.53;1.37;;;;;;;16.67;53.21;100573.72;1745658;81;21080;-70
2023/06/11 06:25:15;;;;;;;5.58;2.20;;;;;;;16.71;52.94;100571.27;1742619;81;21453;-70
2023/06/11 06:27:39;;;;;;;2.33;1.50;;;;;;;16.89;52.94;100579.09;1741593;82;21045;-72
2023/06/11 06:30:07;;;;;;;2.47;1.77;;;;;;;16.93;52.79;100585.86;1744951;81;21516;-69
2023/06/11 06:32:38;;;;;;;5.20;1.60;;;;;;;16.88;52.88;100586.60;1719743;82;21802;-71
2023/06/11 06:35:04;;;;;;;3.70;1.62;;;;;;;17.01;52.53;100567.78;1744544;81;21017;-66
2023/06/11 06:37:30;;;;;;;2.20;1.60;;;;;;;17.02;51.45;100601.12;1739705;81;21587;-69
2023/06/11 06:39:57;;;;;;;5.50;1.67;;;;;;;17.12;51.06;100581.17;1740422;81;20983;-71
2023/06/11 06:42:24;;;;;;;4.80;1.52;;;;;;;17.37;51.33;100580.99;1746935;82;20989;-73
2023/06/11 06:44:51;;;;;;;6.22;1.52;;;;;;;17.58;51.85;100577.47;1742182;81;21041;-69
2023/06/11 06:47:18;;;;;;;9.03;1.70;;;;;;;17.68;51.75;100578.12;1745091;81;21025;-71
2023/06/11 06:49:44;;;;;;;4.33;1.72;;;;;;;18.10;51.36;100577.67;1744931;82;20965;-69
2023/06/11 06:52:11;;;;;;;2.72;1.32;;;;;;;18.50;50.45;100581.64;1742321;81;21073;-70
2023/06/11 06:54:39;;;;;;;7.03;1.60;;;;;;;18.55;50.43;100575.58;1742151;81;20946;-66
2023/06/11 06:57:09;;;;;;;3.02;1.50;;;;;;;18.75;50.11;100576.91;1747359;81;20954;-70
2023/06/11 06:59:36;;;;;;;3.60;1.65;;;;;;;19.08;50.48;100575.56;1743456;81;21575;-71
2023/06/11 07:02:02;;;;;;;4.50;1.70;;;;;;;19.59;49.80;100582.59;1742466;81;21005;-70
2023/06/11 07:04:28;;;;;;;4.80;1.60;;;;;;;19.93;49.98;100576.22;1746940;81;21037;-71
2023/06/11 07:06:57;;;;;;;5.05;1.85;;;;;;;20.32;48.68;100578.58;1726076;82;21013;-71
2023/06/11 07:09:25;;;;;;;2.50;1.10;;;;;;;21.45;50.66;100573.53;1749146;82;21077;-68
2023/06/11 07:11:52;;;;;;;3.20;1.60;;;;;;;22.32;49.10;100561.63;1749753;81;21018;-70
2023/06/11 07:14:20;;;;;;;1.77;1.25;;;;;;;21.76;48.10;100572.41;1745209;82;21054;-69
2023/06/11 07:16:46;;;;;;;3.95;1.40;;;;;;;22.26;48.49;100567.47;1746677;82;21021;-70
2023/06/11 07:19:12;;;;;;;2.63;1.40;;;;;;;22.06;47.47;100558.44;1749342;81;21022;-68
2023/06/11 07:21:40;;;;;;;3.25;1.25;;;;;;;22.06;47.47;100558.44;1748926;81;20970;-69
2023/06/11 07:24:08;;;;;;;2.62;1.72;;;;;;;22.50;46.93;100577.41;1742161;81;21034;-72
2023/06/11 07:26:34;;;;;;;5.62;2.27;;;;;;;23.10;46.93;100570.16;1739202;81;20993;-69
2023/06/11 07:29:01;;;;;;;5.37;1.85;;;;;;;24.18;45.97;100573.03;1749433;81;20950;-73
2023/06/11 07:31:27;;;;;;;2.02;1.37;;;;;;;25.17;45.29;100572.30;1745520;81;21007;-70
2023/06/11 07:33:54;;;;;;;2.80;1.20;;;;;;;25.23;45.02;100572.20;1676666;84;21065;-68
2023/06/11 07:36:21;;;;;;;2.10;1.72;;;;;;;26.04;42.93;100561.64;1677876;84;21061;-71
2023/06/11 07:38:48;;;;;;;1.90;1.35;;;;;;;26.32;43.65;100561.56;1699668;82;21115;-73
2023/06/11 07:41:15;;;;;;;4.28;1.60;;;;;;;26.20;43.35;100558.80;1701723;82;21579;-65
2023/06/11 07:43:41;;;;;;;11.20;1.95;;;;;;;26.08;42.48;100555.01;1687046;83;21020;-72
2023/06/11 07:46:08;;;;;;;4.58;1.75;;;;;;;25.74;42.01;100561.95;1688013;83;20918;-71
2023/06/11 07:48:35;;;;;;;;;;;;;;;26.15;41.14;100556.56;1687395;83;21139;-69
2023/06/11 07:51:02;;;;;;;4.17;2.05;;;;;;;26.20;40.53;100561.47;1679241;84;20173;-67
2023/06/11 07:53:33;;;;;;;;;;;;;;;26.40;40.45;100568.33;1681856;84;20983;-68
2023/06/11 07:55:56;;;;;;;3.75;2.20;;;;;;;27.09;39.36;100564.50;1698229;84;20531;-67
2023/06/11 07:58:23;;;;;;;;;;;;;;;27.24;39.70;100565.61;1703533;82;21015;-68
2023/06/11 08:00:50;;;;;;;8.15;2.42;;;;;;;27.50;39.19;100560.69;1703776;83;20512;-67
2023/06/11 08:03:17;;;;;;;5.58;1.72;;;;;;;26.88;39.02;100554.98;1701048;82;21080;-68
2023/06/11 08:05:43;;;;;;;4.33;1.95;;;;;;;27.50;38.93;100555.32;1676059;84;21038;-67
2023/06/11 08:08:10;;;;;;;5.75;2.22;;;;;;;26.94;38.05;100557.06;1736766;81;21096;-67
2023/06/11 08:10:37;;;;;;;;;;;;;;;26.91;37.74;100557.34;1727493;82;21619;-68
2023/06/11 08:13:05;;;;;;;10.72;1.77;;;;;;;26.81;36.16;100563.84;1706501;82;20222;-67
2023/06/11 08:15:32;;;;;;;5.33;1.65;;;;;;;27.41;36.84;100560.65;1698976;83;21097;-68
2023/06/11 08:18:02;;;;;;;2.45;1.57;;;;;;;28.25;36.23;100552.16;1701560;82;20986;-70
2023/06/11 08:20:30;;;;;;;2.35;1.70;;;;;;;27.86;35.61;100552.77;1677023;84;21045;-69
2023/06/11 08:22:57;;;;;;;5.87;1.67;;;;;;;28.40;35.73;100548.80;1698034;83;21476;-68
2023/06/11 08:25:24;;;;;;;9.90;2.65;;;;;;;28.43;34.60;100562.78;1700023;83;21020;-69
2023/06/11 08:27:51;;;;;;;5.50;2.17;;;;;;;28.62;34.59;100556.20;1670081;84;20970;-68
2023/06/11 08:30:17;;;;;;;4.62;2.12;;;;;;;28.38;34.00;100559.72;1698525;83;20974;-66
2023/06/11 08:32:44;;;;;;;3.92;1.50;;;;;;;28.63;33.88;100557.89;1670955;84;21052;-65
2023/06/11 08:35:11;;;;;;;3.67;1.57;;;;;;;28.55;33.23;100563.27;1695151;83;21018;-66
2023/06/11 08:37:37;;;;;;;4.03;1.92;;;;;;;28.26;32.89;100553.84;1697624;83;20990;-66
2023/06/11 08:40:04;;;;;;;2.90;1.72;;;;;;;27.84;32.08;100573.59;1696042;83;21025;-67
2023/06/11 08:42:30;;;;;;;14.53;2.22;;;;;;;27.54;31.99;100554.02;1699579;83;21013;-66
2023/06/11 08:44:57;;;;;;;6.67;1.92;;;;;;;27.58;31.71;100543.28;1700712;83;21082;-67
2023/06/11 08:47:28;;;;;;;5.30;2.02;;;;;;;28.16;31.73;100555.84;1699014;83;21084;-67
2023/06/11 08:49:56;;;;;;;7.97;1.77;;;;;;;28.09;31.18;100546.77;1695996;83;21060;-69
2023/06/11 08:52:25;;;;;;;5.87;1.98;;;;;;;28.57;29.70;100576.04;1701381;83;21099;-68
2023/06/11 08:54:54;;;;;;;3.75;1.75;;;;;;;29.06;30.64;100553.13;1696507;83;20978;-66
2023/06/11 08:57:21;;;;;;;3.52;1.40;;;;;;;28.92;30.19;100561.88;1694197;83;21050;-66
2023/06/11 08:59:47;;;;;;;8.80;1.82;;;;;;;28.55;29.65;100549.84;1702244;83;20993;-66
2023/06/11 09:02:13;;;;;;;;;;;;;;;28.17;29.70;100561.54;1703655;83;20970;-66
2023/06/11 09:04:43;;;;;;;8.65;1.77;;;;;;;28.47;29.82;100555.22;1697285;83;20142;-67
2023/06/11 09:07:09;;;;;;;4.25;1.37;;;;;;;29.12;29.75;100555.12;1697665;83;21428;-66
2023/06/11 09:09:36;;;;;;;6.08;1.40;;;;;;;29.31;29.25;100553.05;1695237;83;21608;-66
2023/06/11 09:12:06;;;;;;;3.17;1.75;;;;;;;28.54;29.08;100556.23;1686660;84;21030;-66
2023/06/11 09:14:33;;;;;;;5.72;1.25;;;;;;;28.74;28.89;100556.71;1697680;83;21517;-67
2023/06/11 09:16:59;;;;;;;;;;;;;;;28.87;28.79;100548.10;1696686;84;21037;-65
2023/06/11 09:19:27;;;;;;;5.75;1.80;;;;;;;28.87;28.39;100548.10;1696317;84;20467;-66
2023/06/11 09:21:56;;;;;;;5.35;1.40;;;;;;;29.46;27.80;100545.91;1691687;83;21494;-66
2023/06/11 09:24:24;;;;;;;5.67;1.20;;;;;;;28.62;27.29;100550.82;1702306;83;20981;-65
2023/06/11 09:26:57;;;;;;;8.03;1.60;;;;;;;28.37;26.83;100554.50;1701536;83;20983;-66
2023/06/11 09:29:25;;;;;;;6.22;1.42;;;;;;;27.45;26.58;100555.32;1704110;83;20952;-63
2023/06/11 09:32:06;;;;;;;2.02;1.30;;;;;;;26.83;26.47;100565.36;1699849;84;21089;-63
2023/06/11 09:34:32;;;;;;;4.65;1.40;;;;;;;26.92;26.77;100551.01;1706116;83;20997;-64
2023/06/11 09:37:00;;;;;;;11.55;1.32;;;;;;;27.53;26.95;100561.70;1702698;83;21038;-68
2023/06/11 09:39:30;;;;;;;4.10;1.25;;;;;;;28.25;26.26;100562.89;1704423;83;21536;-65
2023/06/11 09:41:57;;;;;;;7.67;1.35;;;;;;;29.08;27.30;100537.67;1681991;84;21555;-66
2023/06/11 09:44:24;;;;;;;;;;;;;;;29.41;26.56;100557.72;1707231;83;21050;-65
2023/06/11 09:46:55;;;;;;;7.75;1.15;;;;;;;30.03;25.03;100555.04;1698822;84;20440;-71
2023/06/11 09:49:23;;;;;;;6.78;1.37;;;;;;;30.92;24.38;100586.34;1698247;83;21017;-70
2023/06/11 09:51:52;;;;;;;4.97;1.35;;;;;;;30.93;24.21;100567.78;1703911;83;20997;-67
2023/06/11 09:54:21;;;;;;;4.65;1.60;;;;;;;30.90;23.81;100547.09;1702281;83;21025;-68
2023/06/11 09:56:48;;;;;;;3.05;1.42;;;;;;;31.62;24.94;100560.75;1697044;82;21692;-68
2023/06/11 09:59:20;;;;;;;3.92;1.75;;;;;;;30.82;24.03;100553.41;1698118;83;21065;-65
2023/06/11 10:01:51;;;;;;;5.10;1.50;;;;;;;29.93;24.34;100553.59;1703270;83;21810;-64
2023/06/11 10:04:17;;;;;;;5.55;1.50;;;;;;;30.29;24.26;100561.43;1702150;83;22178;-65
2023/06/11 10:06:45;;;;;;;;;;;;;;;31.07;23.50;100554.49;1705341;83;21073;-68
2023/06/11 10:09:15;;;;;;;2.95;1.20;;;;;;;31.99;23.75;100571.56;1698202;84;20427;-66
2023/06/11 10:11:43;;;;;;;4.72;1.35;;;;;;;32.82;23.50;100558.36;1691765;84;20986;-66
2023/06/11 10:14:21;;;;;;;4.62;1.30;;;;;;;32.40;23.09;100562.27;1695661;84;21804;-67
2023/06/11 10:16:51;;;;;;;7.65;1.20;;;;;;;31.14;22.82;100573.77;1690760;84;21490;-65
2023/06/11 10:19:18;;;;;;;6.67;1.32;;;;;;;30.36;23.23;100558.87;1691469;84;21470;-67
2023/06/11 10:21:51;;;;;;;3.67;1.02;;;;;;;29.84;22.30;100564.92;1690277;84;22188;-67
2023/06/11 10:24:27;;;;;;;11.12;1.65;;;;;;;30.30;23.04;100562.27;1693261;84;21002;-69
2023/06/11 10:27:08;;;;;;;3.27;1.10;;;;;;;30.86;22.21;100558.73;1696131;83;20955;-73
2023/06/11 10:29:41;;;;;;;3.25;1.20;;;;;;;31.71;21.63;100569.56;1691936;83;20970;-67
2023/06/11 10:32:21;;;;;;;3.60;1.32;;;;;;;32.24;22.45;100566.62;1680789;84;21037;-67
2023/06/11 10:34:57;;;;;;;1.85;1.00;;;;;;;31.95;22.39;100563.51;1691070;84;20963;-66
2023/06/11 10:37:33;;;;;;;2.37;0.93;;;;;;;31.07;21.62;100565.28;1693083;84;21129;-66
2023/06/11 10:40:01;;;;;;;2.75;1.00;;;;;;;30.29;22.05;100565.98;1695502;84;21512;-67
2023/06/11 10:42:30;;;;;;;2.62;1.17;;;;;;;29.83;21.71;100561.40;1694120;84;21083;-66
2023/06/11 10:44:58;;;;;;;26.97;2.27;;;;;;;29.45;21.93;100555.83;1690260;84;21128;-70
2023/06/11 10:47:25;;;;;;;2.40;1.05;;;;;;;29.45;21.98;100565.77;1668355;84;21021;-71
2023/06/11 10:49:51;;;;;;;1.52;1.00;;;;;;;29.12;21.82;100564.53;1693742;83;21109;-68
2023/06/11 10:52:20;;;;;;;3.00;0.90;;;;;;;29.16;21.95;100563.70;1696451;84;21041;-69
2023/06/11 10:54:51;;;;;;;1.62;1.10;;;;;;;29.46;21.79;100556.67;1686376;84;20983;-70
2023/06/11 10:57:17;;;;;;;3.90;1.00;;;;;;;28.87;21.79;100558.85;1690279;84;20979;-70
2023/06/11 10:59:43;;;;;;;;;;;;;;;28.77;22.03;100573.33;1688396;83;20987;-70
2023/06/11 11:02:16;;;;;;;3.80;1.20;;;;;;;28.21;21.87;100564.25;1691470;84;20292;-67
2023/06/11 11:04:53;;;;;;;7.62;1.82;;;;;;;27.89;22.01;100552.44;1691501;84;21061;-70
2023/06/11 11:07:19;;;;;;;3.02;1.35;;;;;;;27.70;22.52;100584.05;1693685;83;20986;-68
2023/06/11 11:09:45;;;;;;;1.95;1.07;;;;;;;28.01;22.71;100546.78;1696494;83;21052;-69
2023/06/11 11:12:12;;;;;;;;;;;;;;;28.41;22.82;100553.17;1696961;84;21501;-67
2023/06/11 11:14:38;;;;;;;2.70;1.55;;;;;;;28.41;23.07;100571.98;1696395;83;20166;-70
2023/06/11 11:17:05;;;;;;;3.27;1.00;;;;;;;28.20;22.83;100565.23;1695154;84;20998;-70
2023/06/11 11:19:34;;;;;;;2.08;1.12;;;;;;;28.01;22.97;100560.20;1697071;83;20971;-68
2023/06/11 11:22:00;;;;;;;1.20;1.10;;;;;;;27.37;23.12;100563.33;1696087;83;21560;-70
2023/06/11 11:24:27;;;;;;;2.02;1.10;;;;;;;27.12;23.39;100558.83;1695016;83;21018;-66
2023/06/11 11:26:53;;;;;;;;;;;;;;;27.06;23.63;100532.16;1697180;84;21077;-67
2023/06/11 11:29:21;;;;;;;;;;;;;;;27.34;23.77;100548.07;1698231;83;21134;-69
2023/06/11 11:31:47;;;;;;;2.65;1.27;;;;;;;27.52;24.03;100549.30;1692139;83;20166;-67